createdAt,value
2023-02-12T00:01:50.201Z,95871.42
2023-02-12T00:04:16.546Z,95868.05
2023-02-12T00:06:44.636Z,95865.00
2023-02-12T00:09:09.296Z,95855.66
2023-02-12T00:11:35.665Z,95863.37
2023-02-12T00:14:02.031Z,95856.11
2023-02-12T00:16:28.406Z,95858.23
2023-02-12T00:18:54.780Z,95858.23
2023-02-12T00:21:21.147Z,95862.08
2023-02-12T00:23:47.487Z,95857.84
2023-02-12T00:26:13.873Z,95859.97
2023-02-12T00:28:40.274Z,95867.67
2023-02-12T00:31:06.702Z,95857.84
2023-02-12T00:33:32.979Z,95853.27
2023-02-12T00:35:59.373Z,95861.78
2023-02-12T00:38:25.721Z,95860.49
2023-02-12T00:40:52.121Z,95850.70
2023-02-12T00:43:19.901Z,95846.01
2023-02-12T00:45:44.934Z,95836.55
2023-02-12T00:48:11.301Z,95838.37
2023-02-12T00:50:37.681Z,95839.66
2023-02-12T00:53:04.025Z,95835.72
2023-02-12T00:55:30.398Z,95828.53
2023-02-12T00:57:56.829Z,95834.97
2023-02-12T01:00:23.194Z,95822.22
2023-02-12T01:02:49.565Z,95816.97
2023-02-12T01:05:16.011Z,95820.83
2023-02-12T01:07:42.300Z,95809.26
2023-02-12T01:10:08.681Z,95804.22
2023-02-12T01:12:35.028Z,95809.37
2023-02-12T01:15:01.407Z,95806.80
2023-02-12T01:17:27.780Z,95814.13
2023-02-12T01:19:54.170Z,95826.53
2023-02-12T01:22:20.532Z,95822.22
2023-02-12T01:24:46.916Z,95825.17
2023-02-12T01:27:13.321Z,95823.13
2023-02-12T01:29:39.715Z,95832.50
2023-02-12T01:32:07.450Z,95826.98
2023-02-12T01:34:32.511Z,95825.34
2023-02-12T01:36:58.896Z,95818.44
2023-02-12T01:39:25.267Z,95820.55
2023-02-12T01:41:51.657Z,95814.58
2023-02-12T01:44:18.052Z,95803.13
2023-02-12T01:46:44.471Z,95803.20
2023-02-12T01:49:10.763Z,95800.09
2023-02-12T01:51:37.109Z,95794.20
2023-02-12T01:54:03.500Z,95786.48
2023-02-12T01:56:29.848Z,95789.44
2023-02-12T01:58:56.266Z,95779.61
2023-02-12T02:01:22.662Z,95770.98
2023-02-12T02:03:48.991Z,95780.06
2023-02-12T02:06:15.398Z,95784.30
2023-02-12T02:08:41.769Z,95792.46
2023-02-12T02:11:08.179Z,95784.86
2023-02-12T02:13:34.575Z,95785.66
2023-02-12T02:16:00.934Z,95790.45
2023-02-12T02:18:27.315Z,95801.08
2023-02-12T02:20:53.697Z,95793.85
2023-02-12T02:23:20.066Z,95786.14
2023-02-12T02:25:46.447Z,95786.67
2023-02-12T02:28:12.915Z,95790.98
2023-02-12T02:30:39.402Z,95787.13
2023-02-12T02:33:05.616Z,95784.48
2023-02-12T02:35:32.001Z,95788.23
2023-02-12T02:37:58.347Z,95783.92
2023-02-12T02:40:24.718Z,95791.17
2023-02-12T02:42:51.071Z,95784.02
2023-02-12T02:45:17.435Z,95779.61
2023-02-12T02:47:43.773Z,95774.92
2023-02-12T02:50:10.152Z,95786.14
2023-02-12T02:52:36.494Z,95793.02
2023-02-12T02:55:02.883Z,95799.91
2023-02-12T02:57:29.254Z,95798.16
2023-02-12T02:59:55.665Z,95809.35
2023-02-12T03:02:22.055Z,95816.61
2023-02-12T03:04:48.511Z,95809.63
2023-02-12T03:07:14.854Z,95809.73
2023-02-12T03:09:41.244Z,95817.33
2023-02-12T03:12:07.601Z,95811.28
2023-02-12T03:14:35.741Z,95809.55
2023-02-12T03:17:00.389Z,95809.09
2023-02-12T03:19:26.804Z,95813.30
2023-02-12T03:21:53.133Z,95810.38
2023-02-12T03:24:19.804Z,95808.72
2023-02-12T03:26:46.158Z,95803.50
2023-02-12T03:29:12.605Z,95803.13
2023-02-12T03:31:39.015Z,95794.13
2023-02-12T03:34:05.333Z,95799.98
2023-02-12T03:36:31.676Z,95801.38
2023-02-12T03:38:58.037Z,95802.67
2023-02-12T03:41:24.398Z,95799.91
2023-02-12T03:43:50.768Z,95796.41
2023-02-12T03:46:17.164Z,95794.32
2023-02-12T03:48:43.489Z,95795.61
2023-02-12T03:51:09.859Z,95790.46
2023-02-12T03:53:36.230Z,95789.98
2023-02-12T03:56:02.567Z,95783.93
2023-02-12T03:58:28.956Z,95782.57
2023-02-12T04:00:55.293Z,95783.86
2023-02-12T04:03:21.680Z,95783.86
2023-02-12T04:05:48.024Z,95783.37
2023-02-12T04:08:14.402Z,95781.62
2023-02-12T04:10:40.740Z,95776.48
2023-02-12T04:13:07.112Z,95789.72
2023-02-12T04:15:33.465Z,95791.38
2023-02-12T04:17:59.940Z,95793.50
2023-02-12T04:20:26.275Z,95789.16
2023-02-12T04:22:52.665Z,95792.10
2023-02-12T04:25:19.007Z,95790.26
2023-02-12T04:27:45.410Z,95792.03
2023-02-12T04:30:11.742Z,95800.09
2023-02-12T04:32:38.128Z,95799.25
2023-02-12T04:35:04.469Z,95803.41
2023-02-12T04:37:30.855Z,95807.62
2023-02-12T04:39:57.222Z,95809.02
2023-02-12T04:42:23.607Z,95802.13
2023-02-12T04:44:49.976Z,95804.70
2023-02-12T04:47:17.575Z,95807.73
2023-02-12T04:49:42.720Z,95807.27
2023-02-12T04:52:09.098Z,95815.44
2023-02-12T04:54:35.438Z,95822.24
2023-02-12T04:57:01.820Z,95816.09
2023-02-12T04:59:28.186Z,95810.94
2023-02-12T05:01:54.552Z,95816.54
2023-02-12T05:04:20.910Z,95815.63
2023-02-12T05:06:47.296Z,95813.59
2023-02-12T05:09:13.628Z,95815.63
2023-02-12T05:11:40.011Z,95817.83
2023-02-12T05:14:06.362Z,95812.69
2023-02-12T05:16:32.748Z,95814.42
2023-02-12T05:18:59.092Z,95825.54
2023-02-12T05:21:25.472Z,95822.97
2023-02-12T05:23:51.818Z,95824.25
2023-02-12T05:26:18.194Z,95828.56
2023-02-12T05:28:44.546Z,95834.43
2023-02-12T05:31:11.080Z,95839.68
2023-02-12T05:33:37.279Z,95852.92
2023-02-12T05:36:03.693Z,95860.63
2023-02-12T05:38:30.001Z,95846.94
2023-02-12T05:40:56.387Z,95858.86
2023-02-12T05:43:23.704Z,95860.14
2023-02-12T05:45:49.128Z,95856.22
2023-02-12T05:48:15.467Z,95853.53
2023-02-12T05:50:41.848Z,95859.84
2023-02-12T05:53:08.179Z,95852.75
2023-02-12T05:55:34.558Z,95861.48
2023-02-12T05:58:00.896Z,95865.72
2023-02-12T06:00:27.288Z,95861.13
2023-02-12T06:02:53.661Z,95862.41
2023-02-12T06:05:20.002Z,95863.14
2023-02-12T06:07:46.338Z,95862.69
2023-02-12T06:10:12.731Z,95869.92
2023-02-12T06:12:39.071Z,95871.97
2023-02-12T06:15:05.483Z,95872.05
2023-02-12T06:17:31.817Z,95868.75
2023-02-12T06:19:58.220Z,95869.02
2023-02-12T06:22:24.563Z,95873.44
2023-02-12T06:24:50.978Z,95876.02
2023-02-12T06:27:17.311Z,95879.04
2023-02-12T06:29:43.702Z,95871.51
2023-02-12T06:32:10.071Z,95867.91
2023-02-12T06:34:36.427Z,95878.69
2023-02-12T06:37:02.778Z,95871.50
2023-02-12T06:39:29.153Z,95869.56
2023-02-12T06:41:55.536Z,95874.45
2023-02-12T06:44:21.918Z,95880.42
2023-02-12T06:46:48.320Z,95882.16
2023-02-12T06:49:14.686Z,95888.32
2023-02-12T06:51:41.043Z,95885.37
2023-02-12T06:54:07.422Z,95885.48
2023-02-12T06:56:33.766Z,95884.65
2023-02-12T06:59:00.141Z,95887.75
2023-02-12T07:01:26.511Z,95895.02
2023-02-12T07:03:52.939Z,95895.58
2023-02-12T07:06:19.236Z,95904.58
2023-02-12T07:08:45.637Z,95906.42
2023-02-12T07:11:11.983Z,95896.21
2023-02-12T07:13:38.364Z,95896.21
2023-02-12T07:16:04.722Z,95891.97
2023-02-12T07:18:31.119Z,95898.89
2023-02-12T07:20:57.454Z,95897.50
2023-02-12T07:23:23.848Z,95895.83
2023-02-12T07:25:50.178Z,95898.59
2023-02-12T07:28:16.609Z,95904.56
2023-02-12T07:30:42.962Z,95900.81
2023-02-12T07:33:09.294Z,95904.66
2023-02-12T07:35:35.630Z,95901.27
2023-02-12T07:38:02.019Z,95904.74
2023-02-12T07:40:28.381Z,95912.00
2023-02-12T07:42:54.800Z,95911.62
2023-02-12T07:45:21.136Z,95912.45
2023-02-12T07:47:47.527Z,95915.48
2023-02-12T07:50:13.873Z,95915.59
2023-02-12T07:52:40.247Z,95915.25
2023-02-12T07:55:06.595Z,95917.38
2023-02-12T07:57:32.972Z,95918.66
2023-02-12T07:59:59.312Z,95916.53
2023-02-12T08:02:26.702Z,95913.23
2023-02-12T08:04:52.045Z,95919.29
2023-02-12T08:07:18.435Z,95919.22
2023-02-12T08:09:44.768Z,95920.58
2023-02-12T08:12:12.857Z,95922.69
2023-02-12T08:14:37.499Z,95929.23
2023-02-12T08:17:05.364Z,95930.97
2023-02-12T08:19:30.232Z,95929.23
2023-02-12T08:21:56.643Z,95925.37
2023-02-12T08:24:22.960Z,95930.13
2023-02-12T08:26:49.345Z,95933.98
2023-02-12T08:29:15.717Z,95940.04
2023-02-12T08:31:42.153Z,95945.56
2023-02-12T08:34:08.435Z,95950.43
2023-02-12T08:36:34.823Z,95958.14
2023-02-12T08:39:01.157Z,95954.28
2023-02-12T08:41:27.545Z,95958.14
2023-02-12T08:43:53.877Z,95957.77
2023-02-12T08:46:20.338Z,95961.62
2023-02-12T08:48:46.635Z,95968.42
2023-02-12T08:51:13.010Z,95969.27
2023-02-12T08:53:39.343Z,95970.23
2023-02-12T08:56:05.727Z,95967.52
2023-02-12T08:58:32.134Z,95969.71
2023-02-12T09:00:58.480Z,95968.80
2023-02-12T09:03:24.809Z,95977.50
2023-02-12T09:05:51.187Z,95977.50
2023-02-12T09:08:17.529Z,95974.58
2023-02-12T09:10:43.921Z,95978.78
2023-02-12T09:13:10.252Z,95983.47
2023-02-12T09:15:36.951Z,95990.73
2023-02-12T09:18:03.282Z,95987.78
2023-02-12T09:20:29.670Z,95993.03
2023-02-12T09:22:56.001Z,95993.03
2023-02-12T09:25:22.395Z,95993.86
2023-02-12T09:27:48.724Z,95992.65
2023-02-12T09:30:15.113Z,96000.30
2023-02-12T09:32:41.447Z,96007.24
2023-02-12T09:35:07.837Z,95999.91
2023-02-12T09:37:34.178Z,95995.22
2023-02-12T09:40:00.567Z,95990.08
2023-02-12T09:42:26.910Z,95990.80
2023-02-12T09:44:53.282Z,95994.21
2023-02-12T09:47:19.620Z,95997.23
2023-02-12T09:49:46.038Z,95993.30
2023-02-12T09:52:14.517Z,95992.02
2023-02-12T09:54:40.913Z,95992.92
2023-02-12T09:57:07.255Z,96001.85
2023-02-12T09:59:33.668Z,96004.42
2023-02-12T10:02:00.016Z,96007.45
2023-02-12T10:04:26.426Z,96004.42
2023-02-12T10:06:52.733Z,95995.42
2023-02-12T10:09:19.175Z,96003.21
2023-02-12T10:11:45.513Z,96002.69
2023-02-12T10:14:11.938Z,95997.72
2023-02-12T10:16:38.585Z,95994.59
2023-02-12T10:19:04.693Z,95997.44
2023-02-12T10:21:31.028Z,95999.18
2023-02-12T10:23:57.418Z,96005.53
2023-02-12T10:26:23.744Z,96005.53
2023-02-12T10:28:50.127Z,96003.52
2023-02-12T10:31:16.562Z,96011.30
2023-02-12T10:33:42.853Z,96018.64
2023-02-12T10:36:09.211Z,96020.86
2023-02-12T10:38:35.592Z,96019.36
2023-02-12T10:41:01.998Z,96012.03
2023-02-12T10:43:28.313Z,96010.81
2023-02-12T10:45:54.895Z,96015.05
2023-02-12T10:48:21.075Z,96018.08
2023-02-12T10:50:47.378Z,96017.45
2023-02-12T10:53:13.767Z,96014.75
2023-02-12T10:55:40.142Z,96017.98
2023-02-12T10:58:06.517Z,96019.36
2023-02-12T11:00:32.854Z,96016.87
2023-02-12T11:02:59.277Z,96013.56
2023-02-12T11:05:25.611Z,96014.84
2023-02-12T11:07:52.004Z,96004.19
2023-02-12T11:10:18.334Z,96006.58
2023-02-12T11:12:44.723Z,96012.66
2023-02-12T11:15:11.065Z,96004.01
2023-02-12T11:17:37.469Z,96010.89
2023-02-12T11:20:05.994Z,96012.66
2023-02-12T11:22:32.371Z,96014.75
2023-02-12T11:24:58.708Z,96012.28
2023-02-12T11:27:25.097Z,96012.73
2023-02-12T11:29:51.419Z,96008.88
2023-02-12T11:32:17.802Z,95999.80
2023-02-12T11:34:44.144Z,95995.56
2023-02-12T11:37:10.524Z,95993.83
2023-02-12T11:39:36.856Z,95997.52
2023-02-12T11:42:03.240Z,95991.26
2023-02-12T11:44:29.579Z,96002.03
2023-02-12T11:46:56.089Z,96003.77
2023-02-12T11:49:22.334Z,96002.09
2023-02-12T11:51:48.745Z,96005.61
2023-02-12T11:54:15.077Z,96009.53
2023-02-12T11:56:41.456Z,96000.61
2023-02-12T11:59:07.802Z,96001.44
2023-02-12T12:01:34.267Z,96011.27
2023-02-12T12:04:00.545Z,96012.94
2023-02-12T12:06:28.594Z,96010.89
2023-02-12T12:08:53.265Z,96007.52
2023-02-12T12:11:19.638Z,96004.47
2023-02-12T12:13:46.003Z,96010.75
2023-02-12T12:16:12.404Z,96011.27
2023-02-12T12:18:38.733Z,96011.83
2023-02-12T12:21:05.119Z,96016.03
2023-02-12T12:23:31.484Z,96018.25
2023-02-12T12:25:58.098Z,96016.87
2023-02-12T12:28:24.321Z,96019.44
2023-02-12T12:30:51.070Z,96018.98
2023-02-12T12:33:17.327Z,96012.48
2023-02-12T12:35:43.710Z,96018.53
2023-02-12T12:38:10.050Z,96024.13
2023-02-12T12:40:36.508Z,96030.10
2023-02-12T12:43:02.850Z,96032.02
2023-02-12T12:45:29.231Z,96031.17
2023-02-12T12:47:55.574Z,96030.66
2023-02-12T12:50:21.909Z,96037.53
2023-02-12T12:52:49.685Z,96038.44
2023-02-12T12:55:14.703Z,96035.97
2023-02-12T12:57:41.086Z,96029.44
2023-02-12T13:00:07.427Z,96033.02
2023-02-12T13:02:33.860Z,96040.28
2023-02-12T13:05:00.174Z,96039.06
2023-02-12T13:07:26.531Z,96036.04
2023-02-12T13:09:52.875Z,96039.72
2023-02-12T13:12:19.246Z,96036.49
2023-02-12T13:14:45.592Z,96039.89
2023-02-12T13:17:11.968Z,96044.59
2023-02-12T13:19:38.306Z,96047.05
2023-02-12T13:22:04.692Z,96051.84
2023-02-12T13:24:31.073Z,96046.78
2023-02-12T13:26:57.444Z,96050.63
2023-02-12T13:29:23.781Z,96046.88
2023-02-12T13:31:50.296Z,96050.63
2023-02-12T13:34:16.508Z,96052.53
2023-02-12T13:36:42.896Z,96056.39
2023-02-12T13:39:09.244Z,96056.70
2023-02-12T13:41:35.633Z,96061.92
2023-02-12T13:44:01.966Z,96057.05
2023-02-12T13:46:28.364Z,96057.05
2023-02-12T13:48:54.689Z,96061.30
2023-02-12T13:51:21.068Z,96059.28
2023-02-12T13:53:47.412Z,96062.80
2023-02-12T13:56:13.797Z,96067.27
2023-02-12T13:58:40.200Z,96066.82
2023-02-12T14:01:06.563Z,96069.46
2023-02-12T14:03:32.936Z,96069.46
2023-02-12T14:05:59.345Z,96056.84
2023-02-12T14:08:25.686Z,96074.60
2023-02-12T14:10:52.067Z,96083.22
2023-02-12T14:13:18.414Z,96081.86
2023-02-12T14:15:44.892Z,96081.03
2023-02-12T14:18:11.132Z,96075.44
2023-02-12T14:20:37.525Z,96084.88
2023-02-12T14:23:05.178Z,96089.95
2023-02-12T14:25:30.253Z,96095.00
2023-02-12T14:27:56.663Z,96097.57
2023-02-12T14:30:23.062Z,96104.00
2023-02-12T14:32:49.399Z,96105.38
2023-02-12T14:35:15.780Z,96105.00
2023-02-12T14:37:42.170Z,96105.91
2023-02-12T14:40:08.552Z,96109.76
2023-02-12T14:42:34.892Z,96123.55
2023-02-12T14:45:01.282Z,96117.92
2023-02-12T14:47:27.643Z,96117.64
2023-02-12T14:49:54.027Z,96117.19
2023-02-12T14:52:20.366Z,96135.92
2023-02-12T14:54:46.742Z,96137.30
2023-02-12T14:57:13.080Z,96135.18
2023-02-12T14:59:39.463Z,96134.45
2023-02-12T15:02:05.796Z,96143.80
2023-02-12T15:04:32.206Z,96146.81
2023-02-12T15:06:58.539Z,96151.89
2023-02-12T15:09:24.921Z,96154.75
2023-02-12T15:11:51.292Z,96159.61
2023-02-12T15:14:17.652Z,96161.27
2023-02-12T15:16:43.982Z,96169.34
2023-02-12T15:19:10.361Z,96174.86
2023-02-12T15:21:36.703Z,96186.81
2023-02-12T15:24:03.085Z,96192.31
2023-02-12T15:26:29.431Z,96193.15
2023-02-12T15:28:55.826Z,96203.43
2023-02-12T15:31:22.556Z,96206.84
2023-02-12T15:33:48.884Z,96213.27
2023-02-12T15:36:15.224Z,96220.08
2023-02-12T15:38:41.678Z,96218.80
2023-02-12T15:41:07.972Z,96223.94
2023-02-12T15:43:34.365Z,96220.91
2023-02-12T15:46:00.701Z,96228.14
2023-02-12T15:48:27.111Z,96232.38
2023-02-12T15:50:53.452Z,96232.84
2023-02-12T15:53:19.842Z,96234.57
2023-02-12T15:55:46.247Z,96240.94
2023-02-12T15:58:12.622Z,96239.36
2023-02-12T16:00:38.990Z,96239.27
2023-02-12T16:03:05.371Z,96236.69
2023-02-12T16:05:32.974Z,96241.83
2023-02-12T16:07:58.093Z,96241.83
2023-02-12T16:10:24.433Z,96256.36
2023-02-12T16:12:50.825Z,96266.65
2023-02-12T16:15:17.149Z,96267.48
2023-02-12T16:17:43.550Z,96269.28
2023-02-12T16:20:09.884Z,96276.55
2023-02-12T16:22:36.269Z,96277.38
2023-02-12T16:25:02.611Z,96291.52
2023-02-12T16:27:28.996Z,96288.56
2023-02-12T16:29:55.335Z,96290.78
2023-02-12T16:32:21.751Z,96303.99
2023-02-12T16:34:48.086Z,96304.47
2023-02-12T16:37:14.466Z,96305.66
2023-02-12T16:39:40.823Z,96312.09
2023-02-12T16:42:07.193Z,96316.78
2023-02-12T16:44:33.541Z,96306.50
2023-02-12T16:46:59.926Z,96305.28
2023-02-12T16:49:26.271Z,96312.55
2023-02-12T16:51:52.652Z,96319.97
2023-02-12T16:54:18.991Z,96319.52
2023-02-12T16:56:45.383Z,96315.20
2023-02-12T16:59:11.720Z,96321.70
2023-02-12T17:01:38.103Z,96323.44
2023-02-12T17:04:04.458Z,96326.48
2023-02-12T17:06:30.860Z,96332.43
2023-02-12T17:08:57.195Z,96341.08
2023-02-12T17:11:23.586Z,96347.50
2023-02-12T17:13:49.930Z,96348.41
2023-02-12T17:16:29.491Z,96347.12
2023-02-12T17:18:42.672Z,96351.81
2023-02-12T17:21:09.059Z,96353.55
2023-02-12T17:23:35.399Z,96359.52
2023-02-12T17:26:01.789Z,96362.99
2023-02-12T17:28:28.212Z,96374.56
2023-02-12T17:30:54.728Z,96376.30
2023-02-12T17:33:20.884Z,96391.27
2023-02-12T17:35:47.262Z,96386.58
2023-02-12T17:38:13.618Z,96387.06
2023-02-12T17:40:40.004Z,96391.37
2023-02-12T17:43:06.340Z,96392.27
2023-02-12T17:45:32.789Z,96397.95
2023-02-12T17:47:59.066Z,96394.09
2023-02-12T17:50:25.464Z,96395.44
2023-02-12T17:52:51.821Z,96404.37
2023-02-12T17:55:20.780Z,96408.29
2023-02-12T17:57:44.527Z,96410.32
2023-02-12T18:00:10.915Z,96411.61
2023-02-12T18:02:37.271Z,96418.13
2023-02-12T18:05:03.696Z,96419.41
2023-02-12T18:07:30.019Z,96416.45
2023-02-12T18:09:56.427Z,96422.43
2023-02-12T18:12:23.729Z,96419.41
2023-02-12T18:14:49.152Z,96422.52
2023-02-12T18:17:15.494Z,96419.47
2023-02-12T18:19:41.880Z,96424.16
2023-02-12T18:22:08.219Z,96421.59
2023-02-12T18:24:34.614Z,96421.69
2023-02-12T18:27:00.951Z,96418.28
2023-02-12T18:29:27.339Z,96419.56
2023-02-12T18:31:53.744Z,96419.95
2023-02-12T18:34:20.303Z,96417.14
2023-02-12T18:36:46.647Z,96411.08
2023-02-12T18:39:13.023Z,96411.08
2023-02-12T18:41:39.367Z,96414.13
2023-02-12T18:44:05.740Z,96413.29
2023-02-12T18:46:32.095Z,96423.92
2023-02-12T18:48:59.876Z,96420.07
2023-02-12T18:51:24.816Z,96424.31
2023-02-12T18:53:51.197Z,96423.03
2023-02-12T18:56:17.545Z,96423.42
2023-02-12T18:58:43.928Z,96429.01
2023-02-12T19:01:10.279Z,96438.99
2023-02-12T19:03:36.645Z,96444.05
2023-02-12T19:06:02.995Z,96447.45
2023-02-12T19:08:29.362Z,96452.69
2023-02-12T19:10:55.995Z,96461.59
2023-02-12T19:13:22.109Z,96463.66
2023-02-12T19:15:48.501Z,96465.14
2023-02-12T19:18:14.835Z,96471.58
2023-02-12T19:20:41.170Z,96476.17
2023-02-12T19:23:07.567Z,96473.70
2023-02-12T19:25:33.908Z,96477.91
2023-02-12T19:28:00.387Z,96475.43
2023-02-12T19:30:26.642Z,96464.31
2023-02-12T19:32:53.024Z,96469.84
2023-02-12T19:35:19.357Z,96467.27
2023-02-12T19:37:45.743Z,96474.05
2023-02-12T19:40:12.094Z,96479.14
2023-02-12T19:42:38.489Z,96476.95
2023-02-12T19:45:04.828Z,96477.41
2023-02-12T19:47:31.220Z,96477.02
2023-02-12T19:49:58.749Z,96441.83
2023-02-12T19:52:23.946Z,96485.17
2023-02-12T19:54:50.298Z,96489.87
2023-02-12T19:57:16.681Z,96490.26
2023-02-12T19:59:43.016Z,96489.81
2023-02-12T20:02:09.401Z,96495.79
2023-02-12T20:04:35.743Z,96497.08
2023-02-12T20:07:02.120Z,96503.95
2023-02-12T20:09:28.465Z,96511.66
2023-02-12T20:11:54.891Z,96509.93
2023-02-12T20:14:21.246Z,96506.07
2023-02-12T20:16:47.746Z,96507.72
2023-02-12T20:19:14.092Z,96511.13
2023-02-12T20:21:40.458Z,96509.84
2023-02-12T20:24:06.803Z,96516.72
2023-02-12T20:26:33.205Z,96524.06
2023-02-12T20:28:59.552Z,96521.02
2023-02-12T20:31:26.048Z,96522.78
2023-02-12T20:33:53.578Z,96519.73
2023-02-12T20:36:18.676Z,96519.28
2023-02-12T20:38:45.028Z,96520.96
2023-02-12T20:41:11.385Z,96521.86
2023-02-12T20:43:37.734Z,96524.81
2023-02-12T20:46:04.115Z,96523.59
2023-02-12T20:48:30.482Z,96521.35
2023-02-12T20:50:57.295Z,96526.84
2023-02-12T20:53:23.203Z,96520.88
2023-02-12T20:55:49.576Z,96530.65
2023-02-12T20:58:15.919Z,96525.95
2023-02-12T21:00:42.303Z,96525.56
2023-02-12T21:03:08.637Z,96527.24
2023-02-12T21:05:35.024Z,96528.52
2023-02-12T21:08:01.363Z,96539.64
2023-02-12T21:10:29.581Z,96550.77
2023-02-12T21:12:54.070Z,96549.03
2023-02-12T21:15:20.461Z,96553.34
2023-02-12T21:17:46.811Z,96558.48
2023-02-12T21:20:13.189Z,96560.07
2023-02-12T21:22:39.510Z,96556.66
2023-02-12T21:25:05.902Z,96557.05
2023-02-12T21:27:32.246Z,96554.03
2023-02-12T21:29:58.633Z,96562.10
2023-02-12T21:32:25.122Z,96564.67
2023-02-12T21:34:51.371Z,96565.52
2023-02-12T21:37:17.715Z,96566.80
2023-02-12T21:39:44.099Z,96574.52
2023-02-12T21:42:10.532Z,96574.52
2023-02-12T21:44:36.865Z,96574.52
2023-02-12T21:47:03.215Z,96570.66
2023-02-12T21:49:29.582Z,96576.09
2023-02-12T21:51:55.955Z,96581.19
2023-02-12T21:54:22.335Z,96584.14
2023-02-12T21:56:48.679Z,96590.19
2023-02-12T21:59:15.063Z,96588.36
2023-02-12T22:01:41.401Z,96599.94
2023-02-12T22:04:07.773Z,96600.38
2023-02-12T22:06:34.118Z,96604.72
2023-02-12T22:09:00.578Z,96604.72
2023-02-12T22:11:26.909Z,96603.80
2023-02-12T22:13:53.344Z,96603.34
2023-02-12T22:16:19.837Z,96604.63
2023-02-12T22:18:46.175Z,96603.73
2023-02-12T22:21:13.583Z,96602.06
2023-02-12T22:23:38.896Z,96598.59
2023-02-12T22:26:05.241Z,96605.77
2023-02-12T22:28:31.643Z,96608.80
2023-02-12T22:30:58.310Z,96611.36
2023-02-12T22:33:24.341Z,96610.08
2023-02-12T22:35:50.703Z,96611.36
2023-02-12T22:38:17.079Z,96611.31
2023-02-12T22:40:43.412Z,96617.43
2023-02-12T22:43:09.810Z,96620.36
2023-02-12T22:45:36.162Z,96617.79
2023-02-12T22:48:02.549Z,96627.58
2023-02-12T22:50:28.882Z,96628.02
2023-02-12T22:52:55.265Z,96624.22
2023-02-12T22:55:21.597Z,96622.04
2023-02-12T22:57:47.997Z,96626.73
2023-02-12T23:00:14.339Z,96625.90
2023-02-12T23:02:40.727Z,96621.20
2023-02-12T23:05:07.056Z,96622.48
2023-02-12T23:07:33.437Z,96626.34
2023-02-12T23:09:59.852Z,96620.75
2023-02-12T23:12:26.186Z,96620.36
2023-02-12T23:14:52.598Z,96618.63
2023-02-12T23:17:18.946Z,96626.34
2023-02-12T23:19:45.356Z,96634.45
2023-02-12T23:22:14.125Z,96632.72
2023-02-12T23:24:40.520Z,96633.61
2023-02-12T23:27:06.861Z,96640.80
2023-02-12T23:29:33.284Z,96641.27
2023-02-12T23:31:59.647Z,96640.44
2023-02-12T23:34:28.429Z,96636.94
2023-02-12T23:36:54.766Z,96637.86
2023-02-12T23:39:21.167Z,96641.72
2023-02-12T23:41:47.528Z,96648.06
2023-02-12T23:44:13.909Z,96650.27
2023-02-12T23:46:40.257Z,96653.73
2023-02-12T23:49:06.667Z,96655.47
2023-02-12T23:51:33.006Z,96655.03
2023-02-12T23:53:59.386Z,96658.05
2023-02-12T23:56:25.729Z,96658.49
2023-02-12T23:58:52.149Z,96622.06
